sensor_id;sensor_type;location;lat;lon;timestamp;P1;durP1;ratioP1;P2;durP2;ratioP2
34982;SDS011;21187;50.976;13.720;2023-02-28T00:00:16;10.85;;;4.20;;
34982;SDS011;21187;50.976;13.720;2023-02-28T00:05:19;10.60;;;4.35;;
34982;SDS011;21187;50.976;13.720;2023-02-28T00:10:24;11.07;;;4.50;;
34982;SDS011;21187;50.976;13.720;2023-02-28T00:15:28;10.80;;;4.30;;
34982;SDS011;21187;50.976;13.720;2023-02-28T00:20:29;8.48;;;3.97;;
34982;SDS011;21187;50.976;13.720;2023-02-28T00:25:32;10.35;;;3.83;;
34982;SDS011;21187;50.976;13.720;2023-02-28T00:30:33;11.93;;;4.57;;
34982;SDS011;21187;50.976;13.720;2023-02-28T00:35:38;10.30;;;4.43;;
34982;SDS011;21187;50.976;13.720;2023-02-28T00:40:43;11.98;;;4.18;;
34982;SDS011;21187;50.976;13.720;2023-02-28T00:45:45;11.90;;;4.78;;
34982;SDS011;21187;50.976;13.720;2023-02-28T00:50:48;11.82;;;4.70;;
34982;SDS011;21187;50.976;13.720;2023-02-28T00:55:51;16.98;;;4.28;;
34982;SDS011;21187;50.976;13.720;2023-02-28T01:00:53;17.35;;;5.03;;
34982;SDS011;21187;50.976;13.720;2023-02-28T01:05:55;8.93;;;4.20;;
34982;SDS011;21187;50.976;13.720;2023-02-28T01:10:57;9.48;;;4.38;;
34982;SDS011;21187;50.976;13.720;2023-02-28T01:15:59;13.63;;;4.25;;
34982;SDS011;21187;50.976;13.720;2023-02-28T01:21:34;9.80;;;4.38;;
34982;SDS011;21187;50.976;13.720;2023-02-28T01:31:33;7.40;;;3.92;;
34982;SDS011;21187;50.976;13.720;2023-02-28T01:36:35;10.90;;;4.18;;
34982;SDS011;21187;50.976;13.720;2023-02-28T01:41:38;10.00;;;4.43;;
34982;SDS011;21187;50.976;13.720;2023-02-28T01:46:41;8.73;;;4.10;;
34982;SDS011;21187;50.976;13.720;2023-02-28T01:51:45;12.50;;;4.40;;
34982;SDS011;21187;50.976;13.720;2023-02-28T01:56:57;13.40;;;4.95;;
34982;SDS011;21187;50.976;13.720;2023-02-28T02:02:11;13.55;;;4.88;;
34982;SDS011;21187;50.976;13.720;2023-02-28T02:07:18;12.23;;;4.63;;
34982;SDS011;21187;50.976;13.720;2023-02-28T02:17:48;14.18;;;5.30;;
34982;SDS011;21187;50.976;13.720;2023-02-28T02:23:29;10.57;;;4.68;;
34982;SDS011;21187;50.976;13.720;2023-02-28T02:39:13;14.18;;;4.50;;
34982;SDS011;21187;50.976;13.720;2023-02-28T02:44:26;7.15;;;4.40;;
34982;SDS011;21187;50.976;13.720;2023-02-28T02:49:33;8.73;;;4.55;;
34982;SDS011;21187;50.976;13.720;2023-02-28T02:54:38;14.20;;;5.47;;
34982;SDS011;21187;50.976;13.720;2023-02-28T02:59:43;13.65;;;5.10;;
34982;SDS011;21187;50.976;13.720;2023-02-28T03:04:48;13.70;;;5.30;;
34982;SDS011;21187;50.976;13.720;2023-02-28T03:09:56;13.55;;;5.53;;
34982;SDS011;21187;50.976;13.720;2023-02-28T03:21:23;12.57;;;5.93;;
34982;SDS011;21187;50.976;13.720;2023-02-28T03:26:20;13.02;;;5.07;;
34982;SDS011;21187;50.976;13.720;2023-02-28T03:31:30;23.85;;;6.40;;
34982;SDS011;21187;50.976;13.720;2023-02-28T03:36:40;15.13;;;6.00;;
34982;SDS011;21187;50.976;13.720;2023-02-28T03:52:17;23.60;;;8.50;;
34982;SDS011;21187;50.976;13.720;2023-02-28T04:03:18;14.45;;;6.25;;
34982;SDS011;21187;50.976;13.720;2023-02-28T04:08:20;17.15;;;7.80;;
34982;SDS011;21187;50.976;13.720;2023-02-28T04:13:23;18.80;;;7.75;;
34982;SDS011;21187;50.976;13.720;2023-02-28T04:18:25;18.23;;;7.00;;
34982;SDS011;21187;50.976;13.720;2023-02-28T04:23:27;15.45;;;6.40;;
34982;SDS011;21187;50.976;13.720;2023-02-28T04:28:29;20.08;;;7.07;;
34982;SDS011;21187;50.976;13.720;2023-02-28T04:33:32;27.35;;;9.75;;
34982;SDS011;21187;50.976;13.720;2023-02-28T04:38:34;23.80;;;8.52;;
34982;SDS011;21187;50.976;13.720;2023-02-28T04:43:37;20.92;;;8.23;;
34982;SDS011;21187;50.976;13.720;2023-02-28T04:48:40;23.23;;;7.90;;
34982;SDS011;21187;50.976;13.720;2023-02-28T04:53:42;20.23;;;8.55;;
34982;SDS011;21187;50.976;13.720;2023-02-28T04:58:44;19.70;;;8.15;;
34982;SDS011;21187;50.976;13.720;2023-02-28T05:03:47;21.45;;;7.47;;
34982;SDS011;21187;50.976;13.720;2023-02-28T05:08:50;17.10;;;7.82;;
34982;SDS011;21187;50.976;13.720;2023-02-28T05:13:52;21.35;;;8.48;;
34982;SDS011;21187;50.976;13.720;2023-02-28T05:18:55;23.13;;;7.93;;
34982;SDS011;21187;50.976;13.720;2023-02-28T05:23:59;25.77;;;9.13;;
34982;SDS011;21187;50.976;13.720;2023-02-28T05:29:05;21.75;;;8.40;;
34982;SDS011;21187;50.976;13.720;2023-02-28T05:34:07;24.80;;;9.57;;
34982;SDS011;21187;50.976;13.720;2023-02-28T05:39:12;26.70;;;9.40;;
34982;SDS011;21187;50.976;13.720;2023-02-28T05:44:15;26.52;;;10.00;;
34982;SDS011;21187;50.976;13.720;2023-02-28T05:49:17;35.50;;;11.50;;
34982;SDS011;21187;50.976;13.720;2023-02-28T05:54:18;23.35;;;9.30;;
34982;SDS011;21187;50.976;13.720;2023-02-28T05:59:20;27.92;;;11.85;;
34982;SDS011;21187;50.976;13.720;2023-02-28T06:04:22;23.50;;;8.88;;
34982;SDS011;21187;50.976;13.720;2023-02-28T06:09:32;16.95;;;8.05;;
34982;SDS011;21187;50.976;13.720;2023-02-28T06:14:34;21.63;;;9.05;;
34982;SDS011;21187;50.976;13.720;2023-02-28T06:19:37;26.17;;;9.55;;
34982;SDS011;21187;50.976;13.720;2023-02-28T06:24:40;25.58;;;9.30;;
34982;SDS011;21187;50.976;13.720;2023-02-28T06:29:42;19.63;;;8.07;;
34982;SDS011;21187;50.976;13.720;2023-02-28T06:34:43;25.15;;;8.93;;
34982;SDS011;21187;50.976;13.720;2023-02-28T06:39:45;25.85;;;9.05;;
34982;SDS011;21187;50.976;13.720;2023-02-28T06:44:47;21.73;;;8.55;;
34982;SDS011;21187;50.976;13.720;2023-02-28T06:49:49;23.00;;;8.90;;
34982;SDS011;21187;50.976;13.720;2023-02-28T06:54:51;21.58;;;9.07;;
34982;SDS011;21187;50.976;13.720;2023-02-28T07:00:02;24.55;;;9.00;;
34982;SDS011;21187;50.976;13.720;2023-02-28T07:05:07;21.30;;;9.43;;
34982;SDS011;21187;50.976;13.720;2023-02-28T07:10:10;21.13;;;9.15;;
34982;SDS011;21187;50.976;13.720;2023-02-28T07:15:12;20.00;;;8.68;;
34982;SDS011;21187;50.976;13.720;2023-02-28T07:20:14;25.25;;;9.25;;
34982;SDS011;21187;50.976;13.720;2023-02-28T07:25:16;24.83;;;9.45;;
34982;SDS011;21187;50.976;13.720;2023-02-28T07:30:18;20.38;;;9.48;;
34982;SDS011;21187;50.976;13.720;2023-02-28T07:35:20;24.23;;;9.75;;
34982;SDS011;21187;50.976;13.720;2023-02-28T07:40:22;21.30;;;9.25;;
34982;SDS011;21187;50.976;13.720;2023-02-28T07:45:24;22.08;;;8.77;;
34982;SDS011;21187;50.976;13.720;2023-02-28T07:50:26;23.23;;;8.65;;
34982;SDS011;21187;50.976;13.720;2023-02-28T07:55:32;19.42;;;8.65;;
34982;SDS011;21187;50.976;13.720;2023-02-28T08:00:33;20.13;;;8.75;;
34982;SDS011;21187;50.976;13.720;2023-02-28T08:05:38;23.40;;;8.60;;
34982;SDS011;21187;50.976;13.720;2023-02-28T08:10:41;20.88;;;8.05;;
34982;SDS011;21187;50.976;13.720;2023-02-28T08:15:43;17.90;;;7.88;;
34982;SDS011;21187;50.976;13.720;2023-02-28T08:20:46;18.33;;;7.63;;
34982;SDS011;21187;50.976;13.720;2023-02-28T08:25:54;21.60;;;7.35;;
34982;SDS011;21187;50.976;13.720;2023-02-28T08:30:57;18.33;;;6.90;;
34982;SDS011;21187;50.976;13.720;2023-02-28T08:35:59;15.73;;;7.18;;
34982;SDS011;21187;50.976;13.720;2023-02-28T08:41:02;17.30;;;7.47;;
34982;SDS011;21187;50.976;13.720;2023-02-28T08:46:10;22.00;;;7.68;;
34982;SDS011;21187;50.976;13.720;2023-02-28T08:51:16;22.73;;;7.68;;
34982;SDS011;21187;50.976;13.720;2023-02-28T08:56:20;15.63;;;7.57;;
34982;SDS011;21187;50.976;13.720;2023-02-28T09:01:23;20.85;;;8.07;;
34982;SDS011;21187;50.976;13.720;2023-02-28T09:06:53;15.50;;;6.75;;
34982;SDS011;21187;50.976;13.720;2023-02-28T09:11:56;14.50;;;7.07;;
34982;SDS011;21187;50.976;13.720;2023-02-28T09:16:58;16.92;;;6.57;;
34982;SDS011;21187;50.976;13.720;2023-02-28T09:22:00;15.45;;;6.38;;
34982;SDS011;21187;50.976;13.720;2023-02-28T09:27:02;18.17;;;7.10;;
34982;SDS011;21187;50.976;13.720;2023-02-28T09:32:06;12.82;;;5.85;;
34982;SDS011;21187;50.976;13.720;2023-02-28T09:37:08;16.45;;;6.15;;
34982;SDS011;21187;50.976;13.720;2023-02-28T09:42:30;17.95;;;6.43;;
34982;SDS011;21187;50.976;13.720;2023-02-28T09:47:36;14.98;;;6.78;;
34982;SDS011;21187;50.976;13.720;2023-02-28T09:52:45;19.58;;;6.88;;
34982;SDS011;21187;50.976;13.720;2023-02-28T09:57:51;21.33;;;6.47;;
34982;SDS011;21187;50.976;13.720;2023-02-28T10:08:19;14.50;;;7.07;;
34982;SDS011;21187;50.976;13.720;2023-02-28T10:18:47;20.23;;;6.72;;
34982;SDS011;21187;50.976;13.720;2023-02-28T10:23:55;14.63;;;7.45;;
34982;SDS011;21187;50.976;13.720;2023-02-28T10:29:04;15.77;;;7.15;;
34982;SDS011;21187;50.976;13.720;2023-02-28T10:34:05;21.88;;;6.53;;
34982;SDS011;21187;50.976;13.720;2023-02-28T10:44:44;16.90;;;6.85;;
34982;SDS011;21187;50.976;13.720;2023-02-28T10:49:49;15.10;;;7.35;;
34982;SDS011;21187;50.976;13.720;2023-02-28T10:54:53;16.90;;;7.75;;
34982;SDS011;21187;50.976;13.720;2023-02-28T11:00:18;15.25;;;7.07;;
34982;SDS011;21187;50.976;13.720;2023-02-28T11:05:31;15.50;;;7.07;;
34982;SDS011;21187;50.976;13.720;2023-02-28T11:10:34;17.10;;;7.75;;
34982;SDS011;21187;50.976;13.720;2023-02-28T11:15:36;20.77;;;7.57;;
34982;SDS011;21187;50.976;13.720;2023-02-28T11:20:38;19.92;;;7.50;;
34982;SDS011;21187;50.976;13.720;2023-02-28T11:25:45;17.23;;;7.30;;
34982;SDS011;21187;50.976;13.720;2023-02-28T11:36:08;15.45;;;6.85;;
34982;SDS011;21187;50.976;13.720;2023-02-28T11:46:36;18.42;;;7.10;;
34982;SDS011;21187;50.976;13.720;2023-02-28T11:51:52;14.85;;;7.28;;
34982;SDS011;21187;50.976;13.720;2023-02-28T11:57:15;16.65;;;7.13;;
34982;SDS011;21187;50.976;13.720;2023-02-28T12:02:41;13.32;;;6.25;;
34982;SDS011;21187;50.976;13.720;2023-02-28T12:35:24;13.45;;;6.32;;
34982;SDS011;21187;50.976;13.720;2023-02-28T12:50:57;10.52;;;5.47;;
34982;SDS011;21187;50.976;13.720;2023-02-28T12:56:13;12.05;;;5.53;;
34982;SDS011;21187;50.976;13.720;2023-02-28T13:12:11;11.88;;;6.07;;
34982;SDS011;21187;50.976;13.720;2023-02-28T13:17:33;14.50;;;6.23;;
34982;SDS011;21187;50.976;13.720;2023-02-28T13:27:39;17.20;;;6.80;;
34982;SDS011;21187;50.976;13.720;2023-02-28T13:32:43;15.10;;;7.05;;
34982;SDS011;21187;50.976;13.720;2023-02-28T13:37:45;17.40;;;8.00;;
34982;SDS011;21187;50.976;13.720;2023-02-28T13:42:51;13.80;;;6.22;;
34982;SDS011;21187;50.976;13.720;2023-02-28T13:53:11;19.58;;;9.10;;
34982;SDS011;21187;50.976;13.720;2023-02-28T14:03:57;17.17;;;8.00;;
34982;SDS011;21187;50.976;13.720;2023-02-28T14:09:34;14.82;;;7.95;;
34982;SDS011;21187;50.976;13.720;2023-02-28T14:20:15;15.70;;;7.28;;
34982;SDS011;21187;50.976;13.720;2023-02-28T14:25:22;17.00;;;8.13;;
34982;SDS011;21187;50.976;13.720;2023-02-28T14:40:56;19.67;;;8.70;;
34982;SDS011;21187;50.976;13.720;2023-02-28T14:46:02;18.75;;;8.55;;
34982;SDS011;21187;50.976;13.720;2023-02-28T14:51:07;18.55;;;9.00;;
34982;SDS011;21187;50.976;13.720;2023-02-28T14:56:20;24.65;;;9.60;;
34982;SDS011;21187;50.976;13.720;2023-02-28T15:01:24;19.13;;;9.10;;
34982;SDS011;21187;50.976;13.720;2023-02-28T15:06:27;20.02;;;9.35;;
34982;SDS011;21187;50.976;13.720;2023-02-28T15:11:31;29.30;;;10.05;;
34982;SDS011;21187;50.976;13.720;2023-02-28T15:16:37;18.05;;;8.05;;
34982;SDS011;21187;50.976;13.720;2023-02-28T15:21:43;23.55;;;9.20;;
34982;SDS011;21187;50.976;13.720;2023-02-28T15:26:51;23.48;;;9.00;;
34982;SDS011;21187;50.976;13.720;2023-02-28T15:32:01;21.33;;;8.65;;
34982;SDS011;21187;50.976;13.720;2023-02-28T15:37:27;20.92;;;8.35;;
34982;SDS011;21187;50.976;13.720;2023-02-28T15:42:37;17.20;;;7.97;;
34982;SDS011;21187;50.976;13.720;2023-02-28T15:47:39;23.80;;;8.95;;
34982;SDS011;21187;50.976;13.720;2023-02-28T15:52:42;20.20;;;8.60;;
34982;SDS011;21187;50.976;13.720;2023-02-28T15:57:47;18.58;;;9.00;;
34982;SDS011;21187;50.976;13.720;2023-02-28T16:02:52;31.63;;;14.70;;
34982;SDS011;21187;50.976;13.720;2023-02-28T16:07:55;26.58;;;10.75;;
34982;SDS011;21187;50.976;13.720;2023-02-28T16:12:58;21.05;;;10.15;;
34982;SDS011;21187;50.976;13.720;2023-02-28T16:18:00;26.00;;;10.77;;
34982;SDS011;21187;50.976;13.720;2023-02-28T16:23:02;20.13;;;10.38;;
34982;SDS011;21187;50.976;13.720;2023-02-28T16:33:22;29.92;;;11.98;;
34982;SDS011;21187;50.976;13.720;2023-02-28T16:38:24;29.00;;;10.68;;
34982;SDS011;21187;50.976;13.720;2023-02-28T16:43:26;23.95;;;11.10;;
34982;SDS011;21187;50.976;13.720;2023-02-28T16:48:28;26.48;;;11.27;;
34982;SDS011;21187;50.976;13.720;2023-02-28T16:53:32;27.45;;;11.90;;
34982;SDS011;21187;50.976;13.720;2023-02-28T16:58:33;24.00;;;10.90;;
34982;SDS011;21187;50.976;13.720;2023-02-28T17:03:37;23.98;;;11.20;;
34982;SDS011;21187;50.976;13.720;2023-02-28T17:08:39;49.33;;;19.98;;
34982;SDS011;21187;50.976;13.720;2023-02-28T17:13:40;43.78;;;17.88;;
34982;SDS011;21187;50.976;13.720;2023-02-28T17:18:42;39.22;;;19.25;;
34982;SDS011;21187;50.976;13.720;2023-02-28T17:23:44;38.78;;;16.65;;
34982;SDS011;21187;50.976;13.720;2023-02-28T17:28:47;31.23;;;16.25;;
34982;SDS011;21187;50.976;13.720;2023-02-28T17:33:49;34.75;;;17.17;;
34982;SDS011;21187;50.976;13.720;2023-02-28T17:38:52;51.80;;;22.20;;
34982;SDS011;21187;50.976;13.720;2023-02-28T17:43:56;102.60;;;38.30;;
34982;SDS011;21187;50.976;13.720;2023-02-28T17:48:58;76.53;;;27.30;;
34982;SDS011;21187;50.976;13.720;2023-02-28T17:54:01;64.28;;;23.80;;
34982;SDS011;21187;50.976;13.720;2023-02-28T17:59:03;50.22;;;20.33;;
34982;SDS011;21187;50.976;13.720;2023-02-28T18:04:05;43.63;;;17.25;;
34982;SDS011;21187;50.976;13.720;2023-02-28T18:09:08;43.78;;;18.17;;
34982;SDS011;21187;50.976;13.720;2023-02-28T18:14:10;53.85;;;24.00;;
34982;SDS011;21187;50.976;13.720;2023-02-28T18:19:12;42.85;;;19.63;;
34982;SDS011;21187;50.976;13.720;2023-02-28T18:24:18;52.47;;;19.65;;
34982;SDS011;21187;50.976;13.720;2023-02-28T18:29:22;40.95;;;17.13;;
34982;SDS011;21187;50.976;13.720;2023-02-28T18:34:26;36.67;;;16.55;;
34982;SDS011;21187;50.976;13.720;2023-02-28T18:39:29;57.30;;;18.30;;
34982;SDS011;21187;50.976;13.720;2023-02-28T18:44:31;40.63;;;17.10;;
34982;SDS011;21187;50.976;13.720;2023-02-28T18:49:33;59.17;;;22.33;;
34982;SDS011;21187;50.976;13.720;2023-02-28T18:54:57;46.55;;;19.50;;
34982;SDS011;21187;50.976;13.720;2023-02-28T18:59:58;68.10;;;31.70;;
34982;SDS011;21187;50.976;13.720;2023-02-28T19:05:00;50.30;;;21.98;;
34982;SDS011;21187;50.976;13.720;2023-02-28T19:10:02;42.85;;;18.33;;
34982;SDS011;21187;50.976;13.720;2023-02-28T19:15:05;41.17;;;16.50;;
34982;SDS011;21187;50.976;13.720;2023-02-28T19:20:08;46.75;;;16.17;;
34982;SDS011;21187;50.976;13.720;2023-02-28T19:25:11;31.90;;;13.40;;
34982;SDS011;21187;50.976;13.720;2023-02-28T19:30:12;33.83;;;15.55;;
34982;SDS011;21187;50.976;13.720;2023-02-28T19:35:14;39.13;;;15.55;;
34982;SDS011;21187;50.976;13.720;2023-02-28T19:40:16;52.53;;;19.90;;
34982;SDS011;21187;50.976;13.720;2023-02-28T19:45:18;53.72;;;21.05;;
34982;SDS011;21187;50.976;13.720;2023-02-28T19:50:21;42.28;;;18.77;;
34982;SDS011;21187;50.976;13.720;2023-02-28T19:55:23;36.67;;;15.48;;
34982;SDS011;21187;50.976;13.720;2023-02-28T20:00:25;35.42;;;15.57;;
34982;SDS011;21187;50.976;13.720;2023-02-28T20:05:27;38.10;;;15.55;;
34982;SDS011;21187;50.976;13.720;2023-02-28T20:10:28;37.53;;;15.80;;
34982;SDS011;21187;50.976;13.720;2023-02-28T20:15:31;44.25;;;17.08;;
34982;SDS011;21187;50.976;13.720;2023-02-28T20:20:33;45.58;;;18.00;;
34982;SDS011;21187;50.976;13.720;2023-02-28T20:25:38;38.35;;;17.45;;
34982;SDS011;21187;50.976;13.720;2023-02-28T20:30:41;44.42;;;18.13;;
34982;SDS011;21187;50.976;13.720;2023-02-28T20:35:43;39.95;;;17.42;;
34982;SDS011;21187;50.976;13.720;2023-02-28T20:40:45;44.00;;;18.02;;
34982;SDS011;21187;50.976;13.720;2023-02-28T20:45:57;39.67;;;17.20;;
34982;SDS011;21187;50.976;13.720;2023-02-28T20:51:04;47.78;;;19.65;;
34982;SDS011;21187;50.976;13.720;2023-02-28T21:01:43;42.50;;;17.88;;
34982;SDS011;21187;50.976;13.720;2023-02-28T21:06:44;37.92;;;15.55;;
34982;SDS011;21187;50.976;13.720;2023-02-28T21:11:52;40.72;;;15.55;;
34982;SDS011;21187;50.976;13.720;2023-02-28T21:16:54;33.95;;;13.30;;
34982;SDS011;21187;50.976;13.720;2023-02-28T21:21:56;36.35;;;13.90;;
34982;SDS011;21187;50.976;13.720;2023-02-28T21:26:58;42.50;;;16.73;;
34982;SDS011;21187;50.976;13.720;2023-02-28T21:32:02;44.78;;;20.05;;
34982;SDS011;21187;50.976;13.720;2023-02-28T21:37:04;43.55;;;18.95;;
34982;SDS011;21187;50.976;13.720;2023-02-28T21:42:08;38.75;;;15.68;;
34982;SDS011;21187;50.976;13.720;2023-02-28T21:47:10;50.10;;;18.30;;
34982;SDS011;21187;50.976;13.720;2023-02-28T21:52:12;37.83;;;15.90;;
34982;SDS011;21187;50.976;13.720;2023-02-28T21:57:14;41.70;;;18.08;;
34982;SDS011;21187;50.976;13.720;2023-02-28T22:02:17;37.72;;;15.88;;
34982;SDS011;21187;50.976;13.720;2023-02-28T22:07:18;40.00;;;16.42;;
34982;SDS011;21187;50.976;13.720;2023-02-28T22:12:20;32.67;;;14.35;;
34982;SDS011;21187;50.976;13.720;2023-02-28T22:17:22;44.97;;;16.65;;
34982;SDS011;21187;50.976;13.720;2023-02-28T22:22:24;44.63;;;17.17;;
34982;SDS011;21187;50.976;13.720;2023-02-28T22:27:26;42.90;;;17.58;;
34982;SDS011;21187;50.976;13.720;2023-02-28T22:32:28;45.05;;;17.00;;
34982;SDS011;21187;50.976;13.720;2023-02-28T22:37:30;42.45;;;17.55;;
34982;SDS011;21187;50.976;13.720;2023-02-28T22:42:32;44.17;;;17.73;;
34982;SDS011;21187;50.976;13.720;2023-02-28T22:47:34;53.78;;;17.17;;
34982;SDS011;21187;50.976;13.720;2023-02-28T22:52:38;47.25;;;17.88;;
34982;SDS011;21187;50.976;13.720;2023-02-28T22:57:40;42.58;;;17.55;;
34982;SDS011;21187;50.976;13.720;2023-02-28T23:02:42;48.95;;;16.25;;
34982;SDS011;21187;50.976;13.720;2023-02-28T23:07:45;44.83;;;18.17;;
34982;SDS011;21187;50.976;13.720;2023-02-28T23:12:47;40.92;;;17.92;;
34982;SDS011;21187;50.976;13.720;2023-02-28T23:17:54;54.63;;;19.23;;
34982;SDS011;21187;50.976;13.720;2023-02-28T23:22:55;41.72;;;17.75;;
34982;SDS011;21187;50.976;13.720;2023-02-28T23:27:57;47.90;;;17.83;;
34982;SDS011;21187;50.976;13.720;2023-02-28T23:38:24;44.22;;;19.42;;
34982;SDS011;21187;50.976;13.720;2023-02-28T23:43:26;55.88;;;20.38;;
34982;SDS011;21187;50.976;13.720;2023-02-28T23:48:29;48.42;;;19.67;;
34982;SDS011;21187;50.976;13.720;2023-02-28T23:53:31;47.53;;;20.65;;
34982;SDS011;21187;50.976;13.720;2023-02-28T23:58:34;49.65;;;19.90;;
